Latest Weather Observations for Applethorpe

IDQ60801

Issued at 10:22 am EST Thursday 2 April 2020 (issued every 10 minutes, with the page automatically refreshed every 10 minutes)

About weather observations | Map of weather stations | Latest weather observations for QLD | Other Formats
Station Details ID: 041175 Name: APPLETHORPE Lat: -28.62 Lon: 151.95 Height: 871.6 m
Data from the previous 72 hours. | See also: Recent months at Applethorpe
Date/Time
EST
Temp
°C
App
Temp
°C
Dew
Point
°C
Rel
Hum
%
Delta-T
°C
Wind Press
QNH
hPa
Press
MSL
hPa
Rain since
9am
mm
Dir  Spd
km/h
Gust
km/h
Spd
kts
Gust
kts
02/10:00am 21.6 21.2 14.0 62 4.6 ENE 9 19 5 10 1020.1 1017.3 0.0
02/09:30am 20.6 20.6 14.3 67 3.8 ENE 7 15 4 8 1020.5 1017.7 0.0
02/09:00am 18.4 17.9 13.9 75 2.7 ENE 9 17 5 9 1020.6 1017.9 0.0
02/08:30am 18.5 18.4 15.0 80 2.1 ENE 9 17 5 9 1020.5 1017.7 0.0
02/08:00am 16.9 17.2 14.5 86 1.4 ENE 6 15 3 8 1020.4 1017.6 0.0
02/07:30am 15.8 15.9 14.5 92 0.8 ENE 7 13 4 7 1020.4 1017.6 0.0
02/07:00am 15.0 15.1 14.0 94 0.6 ENE 6 13 3 7 1020.0 1017.2 0.0
02/06:30am 14.3 14.2 13.3 94 0.6 ENE 6 13 3 7 1019.5 1016.8 0.0
02/06:00am 13.9 14.0 12.8 93 0.6 ENE 4 9 2 5 1019.7 1016.9 0.0
02/05:30am 14.1 14.3 13.0 93 0.6 ENE 4 7 2 4 1019.9 1017.1 0.0
02/05:00am 14.1 14.3 13.0 93 0.6 ENE 4 7 2 4 1019.8 1017.0 0.0
02/04:30am 13.9 14.3 12.6 92 0.7 NE 2 6 1 3 1019.8 1017.0 0.0
02/04:00am 14.0 14.8 12.6 91 0.8 CALM 0 4 0 2 1019.4 1016.6 0.0
02/03:30am 14.6 14.6 13.5 93 0.6 ENE 6 11 3 6 1019.2 1016.4 0.0
02/03:00am 14.2 14.0 12.9 92 0.7 NE 6 9 3 5 1019.4 1016.6 0.0
02/02:30am 14.3 14.1 12.9 91 0.8 ENE 6 11 3 6 1019.7 1016.9 0.0
02/02:00am 14.4 14.2 13.1 92 0.7 ENE 6 9 3 5 1020.3 1017.5 0.0
02/01:30am 14.5 14.3 12.9 90 0.9 ENE 6 9 3 5 1020.3 1017.5 0.0
02/01:00am 14.8 14.7 13.2 90 0.9 E 6 13 3 7 1020.6 1017.9 0.0
02/12:30am 14.8 15.1 13.3 91 0.9 E 4 11 2 6 1020.9 1018.1 0.0
02/12:00am 14.7 14.5 12.9 89 1.0 ENE 6 9 3 5 1021.1 1018.3 0.0
 
Date/Time
EST
Temp
°C
App
Temp
°C
Dew
Point
°C
Rel
Hum
%
Delta-T
°C
Wind Press
QNH
hPa
Press
MSL
hPa
Rain since
9am
mm
Dir  Spd
km/h
Gust
km/h
Spd
kts
Gust
kts
01/11:30pm 15.0 15.2 13.0 88 1.2 ENE 4 6 2 3 1021.1 1018.3 0.0
01/11:00pm 15.5 15.2 13.3 87 1.3 ENE 7 15 4 8 1021.4 1018.6 0.0
01/10:30pm 15.9 16.1 14.1 89 1.1 ENE 6 9 3 5 1021.5 1018.7 0.0
01/10:00pm 16.2 16.5 14.4 89 1.1 ENE 6 15 3 8 1021.5 1018.7 0.0
01/09:30pm 16.1 16.3 14.1 88 1.2 ENE 6 9 3 5 1021.5 1018.7 0.0
01/09:00pm 16.2 16.3 14.0 87 1.3 ENE 6 7 3 4 1021.6 1018.9 0.0
01/08:30pm 16.4 16.9 13.9 85 1.5 ENE 4 9 2 5 1021.3 1018.5 0.0
01/08:00pm 16.8 17.3 14.1 84 1.6 ENE 4 11 2 6 1021.2 1018.4 0.0
01/07:30pm 17.2 17.4 14.1 82 1.8 ENE 6 11 3 6 1021.0 1018.2 0.0
01/07:00pm 17.3 17.1 13.0 76 2.5 ENE 6 9 3 5 1020.7 1018.0 0.0
01/06:30pm 18.2 17.9 12.6 70 3.3 ENE 6 11 3 6 1020.3 1017.5 0.0
01/06:00pm 19.2 18.8 12.5 65 3.9 E 6 11 3 6 1020.2 1017.4 0.0
01/05:30pm 20.4 19.7 12.1 59 4.8 E 7 13 4 7 1020.0 1017.2 0.0
01/05:00pm 21.7 20.7 11.1 51 6.1 E 7 15 4 8 1019.8 1017.0 0.0
01/04:30pm 23.1 21.8 9.8 43 7.5 E 7 17 4 9 1019.4 1016.6 0.0
01/04:00pm 23.4 22.0 8.7 39 8.2 E 6 13 3 7 1019.3 1016.5 0.0
01/03:30pm 23.0 21.0 8.7 40 7.9 E 9 15 5 8 1019.4 1016.6 0.0
01/03:00pm 24.1 22.6 9.3 39 8.3 E 7 15 4 8 1019.3 1016.5 0.0
01/02:30pm 24.0 22.4 10.3 42 7.9 ENE 9 17 5 9 1019.5 1016.8 0.0
01/02:00pm 24.2 23.5 11.9 46 7.2 ESE 7 13 4 7 1019.5 1016.8 0.0
01/01:30pm 23.3 21.5 9.3 41 7.9 E 9 19 5 10 1019.7 1016.9 0.0
01/01:00pm 24.5 22.8 11.1 43 7.8 ENE 11 24 6 13 1019.8 1017.0 0.0
01/12:30pm 24.2 23.0 12.8 49 6.8 E 11 20 6 11 1020.2 1017.4 0.0
01/12:00pm 23.5 22.2 11.2 46 7.1 E 9 19 5 10 1020.9 1018.1 0.0
01/11:30am 23.5 22.5 12.2 49 6.7 ENE 9 17 5 9 1021.4 1018.6 0.0
01/11:00am 21.9 20.5 11.0 50 6.3 ESE 9 17 5 9 1021.7 1019.0 0.0
01/10:30am 22.6 21.5 12.0 51 6.2 ENE 9 20 5 11 1021.8 1019.1 0.0
01/10:00am 21.1 19.6 10.6 51 6.0 E 9 20 5 11 1022.2 1019.4 0.0
01/09:30am 21.0 20.1 11.3 54 5.6 E 7 20 4 11 1022.3 1018.3 0.0
01/09:00am 20.1 19.7 13.1 64 4.1 E 7 13 4 7 1022.4 1018.4 0.0
01/08:30am 18.9 18.7 13.7 72 3.1 E 7 15 4 8 1022.3 1018.3 0.0
01/08:00am 17.6 17.5 13.9 79 2.2 ESE 7 17 4 9 1022.3 1018.3 0.0
01/07:30am 16.5 16.4 14.0 85 1.5 E 7 13 4 7 1022.0 1018.0 0.0
01/07:00am 14.9 15.3 13.8 93 0.6 ENE 4 7 2 4 1021.5 1017.5 0.0
01/06:30am 14.1 14.7 13.0 93 0.6 ENE 2 6 1 3 1021.2 1017.1 0.0
01/06:00am 13.5 13.8 12.2 92 0.7 ENE 2 4 1 2 1021.1 1017.0 0.0
01/05:30am 13.6 13.8 11.8 89 1.0 NE 2 4 1 2 1021.0 1016.9 0.0
01/05:00am 14.3 14.4 12.7 90 0.9 ENE 4 6 2 3 1020.6 1016.6 0.0
01/04:30am 14.6 14.8 13.0 90 0.9 ENE 4 6 2 3 1020.4 1016.4 0.0
01/04:00am 15.1 15.5 13.6 91 0.9 E 4 9 2 5 1020.2 1016.2 0.0
01/03:30am 15.0 15.3 13.4 90 0.9 E 4 9 2 5 1020.1 1016.0 0.0
01/03:00am 15.1 15.4 13.3 89 1.0 E 4 11 2 6 1019.9 1015.8 0.0
01/02:30am 15.6 15.6 13.6 88 1.2 ENE 6 9 3 5 1020.0 1015.9 0.0
01/02:00am 15.8 16.0 14.2 90 0.9 E 6 11 3 6 1020.1 1016.0 0.0
01/01:30am 15.2 16.0 13.7 91 0.9 E 2 6 1 3 1020.4 1016.4 0.0
01/01:00am 14.6 15.0 12.6 88 1.1 ENE 2 4 1 2 1020.6 1016.6 0.0
01/12:30am 15.2 15.4 13.2 88 1.2 ENE 4 6 2 3 1020.6 1016.6 0.0
01/12:00am 15.8 16.2 13.8 88 1.2 ENE 4 7 2 4 1020.7 1016.7 0.0
 
Date/Time
EST
Temp
°C
App
Temp
°C
Dew
Point
°C
Rel
Hum
%
Delta-T
°C
Wind Press
QNH
hPa
Press
MSL
hPa
Rain since
9am
mm
Dir  Spd
km/h
Gust
km/h
Spd
kts
Gust
kts
31/11:30pm 15.9 16.3 13.7 87 1.3 ENE 4 6 2 3 1020.9 1016.8 0.0
31/11:00pm 16.4 16.7 14.4 88 1.2 ENE 6 9 3 5 1020.9 1016.8 0.0
31/10:30pm 16.5 16.8 14.5 88 1.2 NE 6 9 3 5 1021.0 1016.9 0.0
31/10:00pm 16.8 17.1 14.4 86 1.4 ENE 6 11 3 6 1021.1 1017.0 0.0
31/09:30pm 16.8 16.9 13.9 83 1.7 NE 6 9 3 5 1021.1 1017.0 0.0
31/09:00pm 16.7 17.0 13.4 81 1.9 NE 4 7 2 4 1021.1 1017.0 0.0
31/08:30pm 16.8 17.3 12.7 77 2.4 NE 2 6 1 3 1020.9 1016.8 0.0
31/08:00pm 17.3 17.7 12.6 74 2.7 ESE 2 6 1 3 1020.5 1016.5 0.0
31/07:30pm 18.3 18.7 12.5 69 3.4 SE 2 6 1 3 1020.3 1016.3 0.0
31/07:00pm 19.2 19.7 12.9 67 3.7 SE 2 6 1 3 1019.9 1015.8 0.0
31/06:30pm 20.1 19.8 12.6 62 4.4 ESE 6 9 3 5 1019.3 1015.3 0.0
31/06:00pm 21.0 20.8 12.9 60 4.8 ENE 6 13 3 7 1018.8 1014.7 0.0
31/05:30pm 22.8 22.7 13.3 55 5.7 ENE 6 11 3 6 1018.5 1014.4 0.0
31/05:00pm 24.7 24.6 13.3 49 6.9 E 6 9 3 5 1018.0 1013.9 0.0
31/04:30pm 25.4 24.0 8.8 35 9.4 SW 6 11 3 6 1017.7 1013.6 0.0
31/04:00pm 25.9 24.3 8.0 32 10.0 WSW 6 11 3 6 1017.5 1013.4 0.0
31/03:30pm 25.6 23.8 7.2 31 10.1 WNW 6 11 3 6 1017.4 1013.3 0.0
31/03:00pm 26.0 24.1 7.6 31 10.2 WSW 7 15 4 8 1017.4 1013.3 0.0
31/02:30pm 25.6 22.9 5.8 28 10.6 WSW 9 19 5 10 1017.5 1013.4 0.0
31/02:00pm 25.5 23.0 6.7 30 10.2 SW 9 17 5 9 1017.6 1013.5 0.0
31/01:30pm 25.3 22.4 6.5 30 10.2 WSW 11 24 6 13 1017.8 1013.7 0.0
31/01:00pm 25.0 22.3 7.2 32 9.7 SW 11 22 6 12 1018.0 1013.9 0.0
31/12:30pm 24.3 21.5 8.7 37 8.7 WSW 13 20 7 11 1018.5 1014.4 0.0
31/12:00pm 23.9 21.3 9.5 40 8.1 SW 13 20 7 11 1018.9 1014.8 0.0
31/11:30am 23.7 21.7 10.0 42 7.8 SW 11 19 6 10 1019.2 1015.2 0.0
31/11:00am 23.4 21.5 11.8 48 6.8 SSW 13 20 7 11 1019.5 1015.5 0.0
31/10:30am 22.4 20.6 12.1 52 6.1 SW 13 19 7 10 1019.9 1015.8 0.0
31/10:00am 21.7 20.9 14.1 62 4.6 SSW 11 17 6 9 1019.9 1015.8 0.0
31/09:30am 20.5 21.1 15.3 72 3.2 SW 6 9 3 5 1020.1 1016.0 0.0
31/09:00am 19.2 19.3 14.5 74 2.8 SW 7 13 4 7 1020.2 1016.2 4.6
31/08:30am 18.1 18.3 14.2 78 2.3 WSW 6 11 3 6 1020.1 1016.0 4.6
31/08:00am 17.2 17.2 13.7 80 2.1 WSW 6 9 3 5 1019.8 1015.7 4.6
31/07:30am 16.2 16.5 14.4 89 1.1 WSW 6 9 3 5 1019.4 1015.4 4.6
31/07:00am 15.0 15.5 14.0 94 0.6 SW 4 6 2 3 1019.2 1015.2 4.6
31/06:30am 14.3 15.2 13.0 92 0.7 CALM 0 4 0 2 1018.8 1014.7 4.6
31/06:00am 14.2 15.1 12.8 91 0.8 CALM 0 0 0 0 1018.6 1014.5 4.6
31/05:30am 14.4 15.3 13.0 91 0.8 CALM 0 0 0 0 1018.2 1014.2 4.6
31/05:00am 14.5 15.4 13.0 91 0.9 CALM 0 0 0 0 1018.3 1014.3 4.6
31/04:30am 14.6 15.2 13.1 91 0.9 SW 2 2 1 1 1018.2 1014.2 4.6
31/04:00am 15.0 15.5 13.9 93 0.6 NNW 4 6 2 3 1018.1 1014.0 4.6
31/03:30am 14.8 15.1 13.3 91 0.9 SSW 4 6 2 3 1018.0 1013.9 4.6
31/03:00am 14.9 15.5 13.1 89 1.0 SSW 2 4 1 2 1018.0 1013.9 4.6
31/02:30am 15.3 16.0 13.5 89 1.0 NW 2 4 1 2 1017.8 1013.7 4.6
31/02:00am 15.3 16.4 13.5 89 1.0 CALM 0 2 0 1 1017.7 1013.6 4.2
31/01:30am 15.7 16.2 13.9 89 1.1 N 4 7 2 4 1018.5 1014.4 3.8
31/01:00am 15.7 16.2 14.1 90 0.9 NNW 4 7 2 4 1019.3 1015.3 3.2
31/12:30am 15.8 15.7 13.8 88 1.2 WNW 7 13 4 7 1020.0 1015.9 2.4
31/12:00am 17.1 16.9 13.6 80 2.1 SW 7 13 4 7 1020.1 1016.0 0.0
 
Date/Time
EST
Temp
°C
App
Temp
°C
Dew
Point
°C
Rel
Hum
%
Delta-T
°C
Wind Press
QNH
hPa
Press
MSL
hPa
Rain since
9am
mm
Dir  Spd
km/h
Gust
km/h
Spd
kts
Gust
kts
30/11:30pm 16.7 17.8 13.6 82 1.8 CALM 0 0 0 0 1019.5 1015.5 0.0
30/11:00pm 16.9 18.0 13.4 80 2.0 CALM 0 0 0 0 1019.2 1015.2 0.0
30/10:30pm 17.0 17.3 13.3 79 2.2 NNE 4 6 2 3 1019.3 1015.3 0.0
30/10:00pm 16.6 16.3 13.3 81 1.9 NE 7 9 4 5 1019.4 1015.4 0.0
30/09:30pm 15.8 16.8 13.3 85 1.5 CALM 0 4 0 2 1019.4 1015.4 0.0
30/09:00pm 15.5 16.3 12.6 83 1.7 CALM 0 0 0 0 1019.5 1015.5 0.0
30/08:30pm 16.0 16.4 12.6 80 2.0 SW 2 4 1 2 1019.4 1015.4 0.0
30/08:00pm 16.5 17.3 12.5 77 2.3 CALM 0 0 0 0 1019.1 1015.0 0.0
30/07:30pm 18.3 18.0 13.4 73 2.9 SW 7 11 4 6 1018.9 1014.8 0.0
30/07:00pm 19.8 18.9 13.7 68 3.6 SW 11 19 6 10 1019.3 1015.3 0.0
30/06:30pm 20.9 20.8 12.1 57 5.1 SW 4 7 2 4 1019.4 1015.4 0.0
30/06:00pm 21.6 21.0 11.6 53 5.8 SW 6 11 3 6 1019.1 1015.0 0.0
30/05:30pm 22.4 21.5 11.2 49 6.5 SW 7 11 4 6 1018.9 1014.8 0.0
30/05:00pm 23.5 22.4 9.9 42 7.7 WSW 6 11 3 6 1018.3 1014.3 0.0
30/04:30pm 23.6 22.6 10.3 43 7.6 WSW 6 11 3 6 1018.1 1014.0 0.0
30/04:00pm 25.6 24.5 9.8 37 9.1 WSW 6 9 3 5 1017.7 1013.6 0.0
30/03:30pm 25.4 23.4 8.8 35 9.4 W 9 17 5 9 1017.8 1013.7 0.0
30/03:00pm 25.3 23.8 10.4 39 8.6 SW 9 13 5 7 1017.6 1013.5 0.0
30/02:30pm 24.9 23.4 9.2 37 8.9 WSW 7 19 4 10 1017.7 1013.6 0.0
30/02:00pm 25.3 24.3 11.1 41 8.3 W 7 15 4 8 1018.0 1013.9 0.0
30/01:30pm 24.2 22.8 10.8 43 7.8 W 9 20 5 11 1018.3 1014.3 0.0
30/01:00pm 24.3 23.2 11.9 45 7.3 W 9 19 5 10 1018.6 1014.5 0.0
30/12:30pm 24.4 22.8 11.7 45 7.5 WSW 11 19 6 10 1019.0 1014.9 0.0
30/12:00pm 24.3 23.2 11.9 45 7.3 W 9 17 5 9 1019.5 1015.5 0.0
30/11:30am 22.9 22.6 12.8 53 6.0 WNW 6 13 3 7 1020.0 1015.9 0.0
30/11:00am 22.9 22.3 12.2 51 6.3 NW 7 17 4 9 1020.2 1016.2 0.0
30/10:30am 22.3 21.9 13.1 56 5.5 SW 7 13 4 7 1020.4 1016.4 0.0

Other formats

Comma delimited format used in spreadsheet applications
http://www.bom.gov.au/fwo/IDQ60801/IDQ60801.94553.axf

JavaScript Object Notation format (JSON) in row-major order
http://www.bom.gov.au/fwo/IDQ60801/IDQ60801.94553.json

Data quality

Most of these data are generated automatically and are frequently updated. Quality checks on data are not normally performed. It is possible for incorrect values to appear. Refer to information at About Latest Weather Observations and please check the disclaimer before using these data.